Time;durP1;ratioP1;P1;durP2;ratioP2;P2;SDS_P1;SDS_P2;PMS_P1;PMS_P2;Temp;Humidity;BMP_temperature;BMP_pressure;BME280_temperature;BME280_humidity;BME280_pressure;Samples;Min_cycle;Max_cycle;Signal;HPM_P1;HPM_P2
2021/09/17 00:00:38;;;;;;;10.18;8.85;;;19.50;66.90;;;;;;5057635;28;20480;-79
2021/09/17 00:03:04;;;;;;;10.77;9.35;;;19.50;67.00;;;;;;5057912;28;20035;-80
2021/09/17 00:05:30;;;;;;;10.02;8.40;;;19.50;67.00;;;;;;5040616;28;20401;-79
2021/09/17 00:07:56;;;;;;;10.20;8.75;;;19.50;67.00;;;;;;5060412;28;20070;-79
2021/09/17 00:10:22;;;;;;;11.07;9.23;;;19.40;67.00;;;;;;5059714;28;20107;-80
2021/09/17 00:12:49;;;;;;;10.93;9.48;;;19.40;67.00;;;;;;5058552;28;20020;-80
2021/09/17 00:15:15;;;;;;;11.07;9.27;;;19.40;67.10;;;;;;5057797;28;20032;-80
2021/09/17 00:17:44;;;;;;;11.30;10.02;;;19.40;67.10;;;;;;5060592;28;20024;-80
2021/09/17 00:20:13;;;;;;;10.63;9.52;;;19.40;67.20;;;;;;5077084;28;20047;-79
2021/09/17 00:22:39;;;;;;;11.30;9.60;;;19.40;67.20;;;;;;5076833;28;20035;-80
2021/09/17 00:25:06;;;;;;;11.65;9.75;;;19.40;67.20;;;;;;5056760;28;20062;-80
2021/09/17 00:27:32;;;;;;;11.55;9.30;;;19.40;67.40;;;;;;5053466;28;20030;-80
2021/09/17 00:29:58;;;;;;;11.25;9.38;;;19.40;67.20;;;;;;5040469;28;20043;-79
2021/09/17 00:32:24;;;;;;;13.00;10.90;;;19.40;67.30;;;;;;5052924;28;20055;-80
2021/09/17 00:34:50;;;;;;;11.88;9.98;;;19.30;67.30;;;;;;5043312;28;20400;-80
2021/09/17 00:37:16;;;;;;;11.10;9.50;;;19.30;67.30;;;;;;5057133;28;20036;-79
2021/09/17 00:39:42;;;;;;;12.30;10.00;;;19.30;67.30;;;;;;5074161;28;20036;-80
2021/09/17 00:42:08;;;;;;;12.10;10.10;;;19.30;67.40;;;;;;5060447;28;20032;-80
2021/09/17 00:44:34;;;;;;;13.45;10.80;;;19.30;67.40;;;;;;5056798;28;20039;-80
2021/09/17 00:47:00;;;;;;;12.63;10.52;;;19.30;67.40;;;;;;5060249;28;20664;-81
2021/09/17 00:49:26;;;;;;;11.63;10.07;;;19.30;67.40;;;;;;5055636;28;20392;-79
2021/09/17 00:51:53;;;;;;;11.63;9.85;;;19.30;67.50;;;;;;5073425;28;20028;-79
2021/09/17 00:54:19;;;;;;;12.18;9.77;;;19.30;67.50;;;;;;5076700;28;20035;-79
2021/09/17 00:56:45;;;;;;;12.73;10.40;;;19.30;67.50;;;;;;5076057;28;20029;-80
2021/09/17 00:59:13;;;;;;;11.90;10.00;;;19.30;67.60;;;;;;5076805;28;20521;-81
2021/09/17 01:01:39;;;;;;;11.73;10.07;;;19.20;67.50;;;;;;5056291;28;20053;-81
2021/09/17 01:04:09;;;;;;;11.60;10.20;;;19.20;67.60;;;;;;5048298;28;20041;-80
2021/09/17 01:06:36;;;;;;;11.07;9.02;;;19.30;67.60;;;;;;5059872;28;20041;-80
2021/09/17 01:09:04;;;;;;;13.02;10.48;;;19.30;67.70;;;;;;5056050;28;20120;-80
2021/09/17 01:11:31;;;;;;;12.50;10.43;;;19.30;67.70;;;;;;5058250;28;20024;-79
2021/09/17 01:13:58;;;;;;;13.13;11.63;;;19.30;67.70;;;;;;5076195;28;20020;-80
2021/09/17 01:16:24;;;;;;;13.52;10.93;;;19.20;67.70;;;;;;5075820;28;20075;-80
2021/09/17 01:18:53;;;;;;;12.55;10.65;;;19.20;67.70;;;;;;5075789;28;20056;-80
2021/09/17 01:21:20;;;;;;;12.88;10.35;;;19.20;67.80;;;;;;5059661;28;20027;-80
2021/09/17 01:23:47;;;;;;;11.88;10.55;;;19.20;68.30;;;;;;5050725;28;20070;-80
2021/09/17 01:26:14;;;;;;;11.82;10.48;;;19.20;67.80;;;;;;5055502;28;20043;-80
2021/09/17 01:28:40;;;;;;;12.80;10.32;;;19.20;67.80;;;;;;5057204;28;20142;-79
2021/09/17 01:31:06;;;;;;;12.38;10.57;;;19.20;67.80;;;;;;5075525;28;20021;-79
2021/09/17 01:33:32;;;;;;;12.05;10.68;;;19.20;67.80;;;;;;5059220;28;20032;-80
2021/09/17 01:36:01;;;;;;;13.13;10.88;;;19.20;67.80;;;;;;5084903;28;20027;-80
2021/09/17 01:38:29;;;;;;;12.85;10.32;;;19.20;67.90;;;;;;5055908;28;20032;-80
2021/09/17 01:40:56;;;;;;;12.50;10.60;;;19.20;67.90;;;;;;5074871;28;20059;-80
2021/09/17 01:43:23;;;;;;;12.45;10.30;;;19.20;67.90;;;;;;5075616;28;20044;-80
2021/09/17 01:45:48;;;;;;;13.30;10.73;;;19.10;67.80;;;;;;5055706;28;20040;-79
2021/09/17 01:48:15;;;;;;;12.93;10.90;;;19.20;67.90;;;;;;5025529;28;20020;-80
2021/09/17 01:50:41;;;;;;;12.35;10.50;;;19.20;67.90;;;;;;5075882;28;20024;-79
2021/09/17 01:53:07;;;;;;;12.52;10.93;;;19.10;67.90;;;;;;5074885;28;20020;-80
2021/09/17 01:55:33;;;;;;;12.38;10.63;;;19.20;68.00;;;;;;5075905;28;20044;-80
2021/09/17 01:57:59;;;;;;;11.40;9.60;;;19.20;68.00;;;;;;5055557;28;20463;-79
2021/09/17 02:00:26;;;;;;;11.73;10.05;;;19.10;68.00;;;;;;5075412;28;20074;-80
2021/09/17 02:02:52;;;;;;;11.52;9.90;;;19.10;68.00;;;;;;5058709;28;20127;-79
2021/09/17 02:05:18;;;;;;;13.73;11.00;;;19.10;68.00;;;;;;5056661;28;20143;-79
2021/09/17 02:07:45;;;;;;;12.65;10.10;;;19.10;68.00;;;;;;5058973;28;20040;-79
2021/09/17 02:10:12;;;;;;;13.18;10.63;;;19.10;68.00;;;;;;5061475;28;20361;-80
2021/09/17 02:12:39;;;;;;;11.75;9.73;;;19.10;68.00;;;;;;5055359;28;20021;-80
2021/09/17 02:15:07;;;;;;;11.50;10.07;;;19.10;68.00;;;;;;5058108;28;20039;-79
2021/09/17 02:17:33;;;;;;;12.48;10.73;;;19.10;68.10;;;;;;5039762;28;20131;-80
2021/09/17 02:19:59;;;;;;;13.15;10.45;;;19.10;68.00;;;;;;5057917;28;20110;-80
2021/09/17 02:22:26;;;;;;;13.25;11.60;;;19.10;68.10;;;;;;5057791;28;20067;-80
2021/09/17 02:24:52;;;;;;;11.75;10.23;;;19.10;68.10;;;;;;5054776;28;20036;-80
2021/09/17 02:27:19;;;;;;;13.10;11.07;;;19.10;68.10;;;;;;5057888;28;20059;-79
2021/09/17 02:29:45;;;;;;;12.43;10.65;;;19.10;68.20;;;;;;5074906;28;20050;-79
2021/09/17 02:32:13;;;;;;;12.63;11.02;;;19.00;68.10;;;;;;5054719;28;20044;-80
2021/09/17 02:34:39;;;;;;;13.40;10.65;;;19.10;68.20;;;;;;5055499;28;20032;-80
2021/09/17 02:37:06;;;;;;;13.07;10.52;;;19.00;68.10;;;;;;5054038;28;20028;-80
2021/09/17 02:39:32;;;;;;;13.77;10.18;;;19.00;68.20;;;;;;5073428;28;20024;-81
2021/09/17 02:41:58;;;;;;;12.23;10.40;;;19.10;68.20;;;;;;5057395;28;20020;-80
2021/09/17 02:44:24;;;;;;;13.38;10.70;;;19.00;68.20;;;;;;5074652;28;20028;-79
2021/09/17 02:46:50;;;;;;;12.38;10.80;;;19.10;68.20;;;;;;5041388;28;20040;-80
2021/09/17 02:49:16;;;;;;;12.73;10.70;;;19.00;68.20;;;;;;5040879;28;20455;-80
2021/09/17 02:51:42;;;;;;;12.63;10.77;;;19.00;68.20;;;;;;5057179;28;20025;-80
2021/09/17 02:54:08;;;;;;;12.57;10.70;;;19.00;68.20;;;;;;5073895;28;20028;-79
2021/09/17 02:56:34;;;;;;;13.05;10.70;;;19.00;68.20;;;;;;5078829;28;20107;-80
2021/09/17 02:59:00;;;;;;;14.10;11.60;;;19.00;68.20;;;;;;5037493;28;20032;-80
2021/09/17 03:01:26;;;;;;;13.48;10.98;;;19.00;68.20;;;;;;5057320;28;20056;-80
2021/09/17 03:03:52;;;;;;;12.27;10.52;;;19.00;68.20;;;;;;5056725;28;20028;-80
2021/09/17 03:06:18;;;;;;;13.05;11.10;;;19.00;68.30;;;;;;5053484;28;20481;-80
2021/09/17 03:08:44;;;;;;;13.52;11.07;;;19.00;68.30;;;;;;5034469;28;20388;-79
2021/09/17 03:11:10;;;;;;;13.57;11.13;;;19.00;68.30;;;;;;5023555;28;20039;-80
2021/09/17 03:13:36;;;;;;;13.77;11.38;;;19.00;68.30;;;;;;5054713;28;20032;-79
2021/09/17 03:16:05;;;;;;;13.73;11.48;;;19.00;68.30;;;;;;5037345;28;20559;-80
2021/09/17 03:18:32;;;;;;;12.65;10.82;;;19.00;68.30;;;;;;5072276;28;20032;-81
2021/09/17 03:20:58;;;;;;;12.75;10.82;;;19.00;68.30;;;;;;5052221;28;20029;-80
2021/09/17 03:23:23;;;;;;;12.15;10.52;;;19.00;68.40;;;;;;5057604;28;20043;-80
2021/09/17 03:25:50;;;;;;;13.75;11.32;;;19.00;68.40;;;;;;5037792;28;20044;-82
2021/09/17 03:28:16;;;;;;;12.48;10.68;;;18.90;68.30;;;;;;5051604;28;20037;-79
2021/09/17 03:30:42;;;;;;;13.00;10.88;;;19.00;68.40;;;;;;5056708;28;20024;-80
2021/09/17 03:33:10;;;;;;;14.02;11.75;;;19.00;68.40;;;;;;5037441;28;20119;-80
2021/09/17 03:35:37;;;;;;;12.05;10.68;;;18.90;68.40;;;;;;5071723;28;20039;-81
2021/09/17 03:38:04;;;;;;;12.63;10.80;;;19.00;68.40;;;;;;5053933;28;20499;-80
2021/09/17 03:40:32;;;;;;;13.07;11.25;;;18.90;68.40;;;;;;5050792;28;20047;-80
2021/09/17 03:42:58;;;;;;;14.20;11.05;;;18.90;68.40;;;;;;5055973;28;20114;-82
2021/09/17 03:45:24;;;;;;;14.05;11.38;;;18.90;69.00;;;;;;5053964;28;20074;-80
2021/09/17 03:47:50;;;;;;;13.88;11.30;;;18.90;68.40;;;;;;5071080;28;20037;-80
2021/09/17 03:50:16;;;;;;;13.90;11.30;;;19.00;68.50;;;;;;5056450;28;20028;-81
2021/09/17 03:52:42;;;;;;;14.23;11.25;;;18.90;68.50;;;;;;5073516;28;20051;-80
2021/09/17 03:55:08;;;;;;;13.15;11.15;;;18.90;68.40;;;;;;5073760;28;20032;-80
2021/09/17 03:57:34;;;;;;;14.63;12.07;;;18.90;68.50;;;;;;5054008;28;20031;-80
2021/09/17 04:00:00;;;;;;;14.75;11.85;;;18.90;68.50;;;;;;5047721;28;20123;-81
2021/09/17 04:02:26;;;;;;;13.00;10.88;;;18.90;68.50;;;;;;5057424;28;20154;-81
2021/09/17 04:04:52;;;;;;;14.18;11.73;;;18.90;68.50;;;;;;5053345;28;20508;-79
2021/09/17 04:07:18;;;;;;;13.63;11.55;;;18.90;68.50;;;;;;5040215;28;20543;-81
2021/09/17 04:09:44;;;;;;;13.60;11.68;;;18.90;68.50;;;;;;5073758;28;20420;-80
2021/09/17 04:12:10;;;;;;;14.85;11.70;;;18.90;68.50;;;;;;5073256;28;20068;-80
2021/09/17 04:14:36;;;;;;;14.20;11.88;;;18.90;68.50;;;;;;5073646;28;20056;-80
2021/09/17 04:17:02;;;;;;;13.93;11.25;;;18.90;68.50;;;;;;5036990;28;20032;-81
2021/09/17 04:19:28;;;;;;;13.50;11.38;;;18.80;68.50;;;;;;5055116;28;20024;-80
2021/09/17 04:21:54;;;;;;;13.60;11.07;;;18.90;68.50;;;;;;5031711;28;20427;-80
2021/09/17 04:24:20;;;;;;;15.38;11.98;;;18.90;68.60;;;;;;5075352;28;20130;-79
2021/09/17 04:26:46;;;;;;;16.23;12.75;;;18.90;68.60;;;;;;5059960;28;20541;-80
2021/09/17 04:29:12;;;;;;;15.95;12.18;;;18.90;68.60;;;;;;5056608;28;20028;-79
2021/09/17 04:31:38;;;;;;;15.38;12.05;;;18.90;68.60;;;;;;5062749;28;20534;-80
2021/09/17 04:34:04;;;;;;;15.60;12.50;;;18.90;68.60;;;;;;5046877;28;20115;-80
2021/09/17 04:36:30;;;;;;;15.10;12.43;;;18.80;68.60;;;;;;5042311;28;20440;-80
2021/09/17 04:38:55;;;;;;;15.50;12.90;;;18.80;68.60;;;;;;5043600;28;20093;-80
2021/09/17 04:41:22;;;;;;;15.70;12.25;;;18.80;68.60;;;;;;5059421;28;20042;-85
2021/09/17 04:43:48;;;;;;;14.60;12.35;;;18.80;68.70;;;;;;5059675;28;20020;-84
2021/09/17 04:46:15;;;;;;;14.93;12.30;;;18.80;68.60;;;;;;5048556;28;20047;-88
2021/09/17 04:48:41;;;;;;;15.57;12.90;;;18.80;68.60;;;;;;5056087;28;20020;-83
2021/09/17 04:51:07;;;;;;;16.20;13.05;;;18.90;68.70;;;;;;5066910;28;20036;-84
2021/09/17 04:53:33;;;;;;;16.77;13.23;;;18.80;68.70;;;;;;5060455;28;20051;-85
2021/09/17 04:55:59;;;;;;;15.18;12.82;;;18.80;68.70;;;;;;5077399;28;20464;-85
2021/09/17 04:58:25;;;;;;;17.33;13.32;;;18.80;68.70;;;;;;5048795;28;20147;-84
2021/09/17 05:00:51;;;;;;;15.40;12.23;;;18.80;68.70;;;;;;5056127;28;20039;-86
2021/09/17 05:03:18;;;;;;;15.13;12.10;;;18.80;68.70;;;;;;5058579;28;20388;-85
2021/09/17 05:05:43;;;;;;;15.93;12.90;;;18.80;68.70;;;;;;5036664;28;20135;-85
2021/09/17 05:08:10;;;;;;;15.70;12.88;;;18.80;68.70;;;;;;5046626;28;20115;-85
2021/09/17 05:10:36;;;;;;;15.48;12.68;;;18.80;68.70;;;;;;5054892;28;20041;-84
2021/09/17 05:13:01;;;;;;;14.52;12.05;;;18.80;68.80;;;;;;5073111;28;20543;-84
2021/09/17 05:15:32;;;;;;;16.33;12.75;;;18.80;68.80;;;;;;5072749;28;20032;-88
2021/09/17 05:17:58;;;;;;;15.50;12.30;;;18.80;68.70;;;;;;5052260;28;20021;-82
2021/09/17 05:20:24;;;;;;;14.13;12.15;;;18.80;68.80;;;;;;5052530;28;20040;-82
2021/09/17 05:22:50;;;;;;;15.60;12.85;;;18.80;68.80;;;;;;5051562;28;20111;-81
2021/09/17 05:25:16;;;;;;;15.95;12.55;;;18.80;68.80;;;;;;5067702;28;20052;-80
2021/09/17 05:27:42;;;;;;;15.50;12.57;;;18.80;68.80;;;;;;5022741;28;20024;-81
2021/09/17 05:30:08;;;;;;;14.45;11.93;;;18.80;68.80;;;;;;5034508;28;20037;-81
2021/09/17 05:32:35;;;;;;;14.52;11.90;;;18.80;68.90;;;;;;5052412;28;20096;-81
2021/09/17 05:35:03;;;;;;;13.63;11.32;;;18.80;68.80;;;;;;5050327;28;20107;-81
2021/09/17 05:37:29;;;;;;;15.15;12.35;;;18.80;68.90;;;;;;5065843;28;20082;-81
2021/09/17 05:39:55;;;;;;;14.55;11.90;;;18.80;68.90;;;;;;5053079;28;20033;-80
2021/09/17 05:42:21;;;;;;;15.02;12.35;;;18.80;68.90;;;;;;5034570;28;20064;-81
2021/09/17 05:44:47;;;;;;;14.30;12.20;;;18.80;68.90;;;;;;5031512;28;20044;-81
2021/09/17 05:47:13;;;;;;;14.30;11.75;;;18.80;68.90;;;;;;5051760;28;20036;-80
2021/09/17 05:49:39;;;;;;;15.20;12.75;;;18.80;68.90;;;;;;5067602;28;20600;-79
2021/09/17 05:52:05;;;;;;;14.63;12.02;;;18.80;68.90;;;;;;5055691;28;20472;-79
2021/09/17 05:54:32;;;;;;;14.15;12.20;;;18.80;69.00;;;;;;5072341;28;20039;-80
2021/09/17 05:57:02;;;;;;;16.48;12.93;;;18.80;68.90;;;;;;5039299;28;20491;-80
2021/09/17 05:59:28;;;;;;;14.27;11.52;;;18.80;69.00;;;;;;5044060;28;20362;-80
2021/09/17 06:01:54;;;;;;;15.32;12.32;;;18.80;68.90;;;;;;5047940;28;20033;-80
2021/09/17 06:04:20;;;;;;;14.95;12.63;;;18.80;68.90;;;;;;5046201;28;20033;-81
2021/09/17 06:06:46;;;;;;;16.20;12.57;;;18.80;68.90;;;;;;5059180;28;20032;-81
2021/09/17 06:09:13;;;;;;;15.77;12.48;;;18.80;68.90;;;;;;5058515;28;20043;-81
2021/09/17 06:11:39;;;;;;;15.15;12.63;;;18.80;69.00;;;;;;5058813;28;20035;-80
2021/09/17 06:14:05;;;;;;;15.18;12.30;;;18.80;68.90;;;;;;5055172;28;20040;-80
2021/09/17 06:16:34;;;;;;;14.55;12.18;;;18.80;68.90;;;;;;5083168;28;20031;-79
2021/09/17 06:19:04;;;;;;;15.68;12.93;;;18.80;69.00;;;;;;5075199;28;20028;-80
2021/09/17 06:21:31;;;;;;;16.23;13.07;;;18.80;69.00;;;;;;5074777;28;20040;-80
2021/09/17 06:23:57;;;;;;;15.55;12.82;;;18.80;69.00;;;;;;5041702;28;20036;-81
2021/09/17 06:26:24;;;;;;;14.02;11.98;;;18.80;69.00;;;;;;5074785;28;20036;-81
2021/09/17 06:28:50;;;;;;;14.63;12.15;;;18.80;69.00;;;;;;5057966;28;20364;-80
2021/09/17 06:31:16;;;;;;;14.70;12.10;;;18.80;69.00;;;;;;5038110;28;20044;-81
2021/09/17 06:33:42;;;;;;;14.65;11.85;;;18.80;69.00;;;;;;5075361;28;20099;-83
2021/09/17 06:36:08;;;;;;;15.02;13.10;;;18.80;69.00;;;;;;5074997;28;20487;-81
2021/09/17 06:38:34;;;;;;;16.05;12.65;;;18.80;69.00;;;;;;5058518;28;20051;-80
2021/09/17 06:41:00;;;;;;;15.65;12.50;;;18.80;69.00;;;;;;5052688;28;20104;-82
2021/09/17 06:43:26;;;;;;;15.40;12.43;;;18.80;69.10;;;;;;5076661;28;20052;-80
2021/09/17 06:45:52;;;;;;;15.05;12.40;;;18.80;69.00;;;;;;5060224;28;20028;-83
2021/09/17 06:48:18;;;;;;;14.25;12.07;;;18.80;69.10;;;;;;5028086;28;20476;-83
2021/09/17 06:50:46;;;;;;;15.63;12.95;;;18.80;69.10;;;;;;5048176;28;20025;-82
2021/09/17 06:53:12;;;;;;;15.90;12.65;;;18.80;69.10;;;;;;5058240;28;20128;-82
2021/09/17 06:55:38;;;;;;;14.68;11.88;;;18.80;69.10;;;;;;5075268;28;20023;-83
2021/09/17 06:58:05;;;;;;;14.30;12.23;;;18.80;69.10;;;;;;5059210;28;20032;-82
2021/09/17 07:00:35;;;;;;;13.73;11.50;;;18.80;69.20;;;;;;5058289;28;20017;-82
2021/09/17 07:03:01;;;;;;;14.95;12.35;;;18.80;69.20;;;;;;5074929;28;20458;-83
2021/09/17 07:05:28;;;;;;;13.75;11.52;;;18.90;69.20;;;;;;5053780;28;20136;-82
2021/09/17 07:08:06;;;;;;;15.00;11.95;;;18.80;69.20;;;;;;5051416;28;20052;-82
2021/09/17 07:10:34;;;;;;;14.73;11.68;;;18.80;69.20;;;;;;5038285;28;20040;-83
2021/09/17 07:13:00;;;;;;;13.60;11.80;;;18.90;69.20;;;;;;5051494;28;20401;-82
2021/09/17 07:15:27;;;;;;;13.27;10.88;;;18.90;69.20;;;;;;5070788;28;20024;-82
2021/09/17 07:17:53;;;;;;;14.27;11.80;;;18.90;69.20;;;;;;5054536;28;20059;-83
2021/09/17 07:20:19;;;;;;;13.90;11.52;;;18.90;69.20;;;;;;5054728;28;20029;-82
2021/09/17 07:22:45;;;;;;;13.05;11.18;;;18.90;69.20;;;;;;5021319;28;20032;-82
2021/09/17 07:25:12;;;;;;;13.52;11.02;;;18.90;69.30;;;;;;5054496;28;20075;-82
2021/09/17 07:27:38;;;;;;;12.35;10.40;;;18.90;69.20;;;;;;5053992;28;20052;-81
2021/09/17 07:30:05;;;;;;;13.05;10.70;;;18.90;69.20;;;;;;5042650;28;20100;-81
2021/09/17 07:32:32;;;;;;;12.82;11.05;;;19.00;69.30;;;;;;5049220;28;20144;-82
2021/09/17 07:34:58;;;;;;;13.75;10.80;;;19.00;69.30;;;;;;5055993;28;20576;-84
2021/09/17 07:37:24;;;;;;;13.60;10.43;;;19.00;69.20;;;;;;5070809;28;20481;-83
2021/09/17 07:39:50;;;;;;;13.05;10.63;;;19.00;69.30;;;;;;5045843;28;20386;-83
2021/09/17 07:42:17;;;;;;;12.05;10.20;;;19.00;69.20;;;;;;5051266;28;20025;-83
2021/09/17 07:44:43;;;;;;;12.88;10.27;;;19.00;69.90;;;;;;5047040;28;20040;-83
2021/09/17 07:47:09;;;;;;;11.00;8.82;;;19.00;69.20;;;;;;5070890;28;20465;-82
2021/09/17 07:49:35;;;;;;;11.13;9.48;;;19.10;69.30;;;;;;5050697;28;20036;-82
2021/09/17 07:52:02;;;;;;;12.55;9.85;;;19.10;69.20;;;;;;5054313;28;20033;-83
2021/09/17 07:54:28;;;;;;;11.95;9.00;;;19.10;69.20;;;;;;5053876;28;20027;-82
2021/09/17 07:56:55;;;;;;;11.65;9.27;;;19.10;69.20;;;;;;5071075;28;20027;-83
2021/09/17 07:59:21;;;;;;;10.77;9.07;;;19.10;69.20;;;;;;5064644;28;20029;-83
2021/09/17 08:01:47;;;;;;;10.80;8.93;;;19.20;69.30;;;;;;5041234;28;20032;-82
2021/09/17 08:04:13;;;;;;;11.70;9.95;;;19.20;69.30;;;;;;5075083;28;20485;-83
2021/09/17 08:06:39;;;;;;;12.02;10.13;;;19.20;69.30;;;;;;5060967;28;20064;-83
2021/09/17 08:09:06;;;;;;;11.48;9.27;;;19.20;69.30;;;;;;5076815;28;20511;-82
2021/09/17 08:11:34;;;;;;;11.88;10.00;;;19.20;69.20;;;;;;5041756;28;20025;-82
2021/09/17 08:14:00;;;;;;;10.73;8.73;;;19.20;69.20;;;;;;5058215;28;20016;-82
2021/09/17 08:16:26;;;;;;;11.73;9.30;;;19.30;69.30;;;;;;5054508;28;20500;-81
2021/09/17 08:18:52;;;;;;;10.32;8.52;;;19.30;69.20;;;;;;5066474;28;20472;-82
2021/09/17 08:21:20;;;;;;;11.30;9.55;;;19.30;69.20;;;;;;5054616;28;20025;-83
2021/09/17 08:23:46;;;;;;;11.10;8.93;;;19.30;69.20;;;;;;5074705;28;20028;-86
2021/09/17 08:26:12;;;;;;;11.23;9.52;;;19.30;69.20;;;;;;5053098;28;20464;-84
2021/09/17 08:28:39;;;;;;;10.20;8.52;;;19.40;69.20;;;;;;5057454;28;20586;-83
2021/09/17 08:31:05;;;;;;;10.88;9.02;;;19.40;69.20;;;;;;5074456;28;20024;-83
2021/09/17 08:33:33;;;;;;;9.23;7.72;;;19.40;69.20;;;;;;5057454;28;20468;-83
2021/09/17 08:35:59;;;;;;;10.95;8.95;;;19.40;69.10;;;;;;5065994;28;20078;-84
2021/09/17 08:38:27;;;;;;;10.57;8.75;;;19.50;69.10;;;;;;5053837;28;20036;-84
2021/09/17 08:40:55;;;;;;;10.07;8.63;;;19.50;69.10;;;;;;5047289;28;20498;-83
2021/09/17 08:43:22;;;;;;;9.90;8.23;;;19.50;69.10;;;;;;5057474;28;20400;-83
2021/09/17 08:45:49;;;;;;;10.73;8.80;;;19.60;69.10;;;;;;5057602;28;20027;-83
2021/09/17 08:48:27;;;;;;;10.07;8.63;;;19.60;69.00;;;;;;5049988;28;20020;-83
2021/09/17 08:50:54;;;;;;;8.93;7.83;;;19.60;69.00;;;;;;5054160;28;20479;-83
2021/09/17 08:53:20;;;;;;;9.57;8.38;;;19.70;69.00;;;;;;5065939;28;20695;-83
2021/09/17 08:55:49;;;;;;;9.70;7.97;;;19.70;68.90;;;;;;5073788;28;20028;-83
2021/09/17 08:58:15;;;;;;;9.25;8.02;;;19.70;68.90;;;;;;5073746;28;20086;-83
2021/09/17 09:00:43;;;;;;;9.77;8.05;;;19.70;68.80;;;;;;5073841;28;20024;-83
2021/09/17 09:03:10;;;;;;;9.95;8.57;;;19.80;69.50;;;;;;5054173;28;20029;-84
2021/09/17 09:05:38;;;;;;;9.98;8.35;;;19.80;68.90;;;;;;5053531;28;20093;-83
2021/09/17 09:08:06;;;;;;;10.18;7.90;;;19.90;68.90;;;;;;5036600;28;20024;-83
2021/09/17 09:10:33;;;;;;;11.10;8.90;;;19.90;68.80;;;;;;5072580;28;20033;-83
2021/09/17 09:13:05;;;;;;;10.50;8.95;;;19.90;68.80;;;;;;5057260;28;20020;-83
2021/09/17 09:15:35;;;;;;;8.65;7.07;;;20.00;68.80;;;;;;5073350;28;20056;-83
2021/09/17 09:18:14;;;;;;;9.48;8.27;;;20.00;69.40;;;;;;5057012;28;20594;-84
2021/09/17 09:20:47;;;;;;;10.98;8.70;;;20.10;68.90;;;;;;5056500;28;20469;-83
2021/09/17 09:23:26;;;;;;;10.23;8.30;;;20.10;68.80;;;;;;5053505;28;20086;-83
2021/09/17 09:26:07;;;;;;;10.15;8.43;;;20.10;68.90;;;;;;5066904;28;20078;-88
2021/09/17 09:28:40;;;;;;;9.73;8.55;;;20.10;68.80;;;;;;5047655;28;20044;-84
2021/09/17 09:31:12;;;;;;;9.63;8.50;;;20.20;68.90;;;;;;5053657;28;20183;-85
2021/09/17 09:33:43;;;;;;;10.10;8.15;;;20.20;68.90;;;;;;5070789;28;20028;-87
2021/09/17 09:36:18;;;;;;;10.73;8.68;;;20.30;68.90;;;;;;5050123;28;20029;-89
2021/09/17 09:38:53;;;;;;;9.60;7.97;;;20.30;68.90;;;;;;5073543;28;20182;-87
2021/09/17 09:41:24;;;;;;;10.57;8.48;;;20.40;68.90;;;;;;5073978;28;20029;-89
2021/09/17 09:44:04;;;;;;;9.65;8.55;;;20.40;68.90;;;;;;5057200;28;20358;-89
2021/09/17 09:46:39;;;;;;;11.18;8.45;;;20.50;69.00;;;;;;5059097;28;20230;-89
2021/09/17 09:49:12;;;;;;;9.55;8.10;;;20.50;68.80;;;;;;5053950;28;20052;-88
2021/09/17 09:52:07;;;;;;;9.87;8.53;;;20.60;68.80;;;;;;5067455;28;20593;-90
2021/09/17 09:54:35;;;;;;;8.43;7.05;;;20.60;68.70;;;;;;5046678;28;20360;-90
2021/09/17 09:57:02;;;;;;;9.52;7.82;;;20.60;68.60;;;;;;5053833;28;20024;-88
2021/09/17 09:59:34;;;;;;;8.20;6.82;;;20.70;68.70;;;;;;5053968;28;20025;-84
2021/09/17 10:02:05;;;;;;;9.30;7.97;;;20.70;68.70;;;;;;5053455;28;20025;-88
2021/09/17 10:04:35;;;;;;;8.68;7.53;;;20.80;68.70;;;;;;5075289;28;20028;-83
2021/09/17 10:07:07;;;;;;;9.02;7.15;;;20.80;68.60;;;;;;5059822;28;20024;-84
2021/09/17 10:09:36;;;;;;;9.20;6.90;;;20.90;68.60;;;;;;5059987;28;20463;-85
2021/09/17 10:12:09;;;;;;;8.57;6.75;;;20.90;68.60;;;;;;5060088;28;20143;-83
2021/09/17 10:14:36;;;;;;;8.95;7.10;;;20.90;68.60;;;;;;5058562;28;20116;-84
2021/09/17 10:17:07;;;;;;;8.02;6.28;;;21.00;68.50;;;;;;5059761;28;20032;-84
2021/09/17 10:19:35;;;;;;;9.02;7.80;;;21.00;68.50;;;;;;5057327;28;20024;-85
2021/09/17 10:22:05;;;;;;;9.02;7.32;;;21.10;68.50;;;;;;5047681;28;20113;-85
2021/09/17 10:24:40;;;;;;;8.32;6.45;;;21.10;68.40;;;;;;5054521;28;20038;-84
2021/09/17 10:27:23;;;;;;;8.23;6.28;;;21.10;68.40;;;;;;5056349;28;20066;-84
2021/09/17 10:29:52;;;;;;;7.90;6.60;;;21.20;68.40;;;;;;5065354;28;20575;-85
2021/09/17 10:32:28;;;;;;;7.45;6.32;;;21.20;68.30;;;;;;5060719;28;20035;-85
2021/09/17 10:35:25;;;;;;;7.43;6.03;;;21.20;68.30;;;;;;5062909;28;20393;-83
2021/09/17 10:38:16;;;;;;;7.05;5.97;;;21.30;68.50;;;;;;5063922;28;20115;-83
2021/09/17 10:40:55;;;;;;;7.97;6.25;;;21.30;68.40;;;;;;5080754;28;20064;-84
2021/09/17 10:43:41;;;;;;;7.22;5.93;;;21.30;68.30;;;;;;5053232;28;20024;-83
2021/09/17 10:46:32;;;;;;;7.10;5.68;;;21.40;68.40;;;;;;5059357;28;20050;-83
2021/09/17 10:48:59;;;;;;;6.95;5.72;;;21.40;68.50;;;;;;5047218;28;20486;-83
2021/09/17 10:51:37;;;;;;;7.85;6.18;;;21.40;68.20;;;;;;5055740;28;20111;-84
2021/09/17 10:54:14;;;;;;;7.20;5.80;;;21.50;68.40;;;;;;5055963;28;20131;-81
2021/09/17 10:56:49;;;;;;;7.07;5.82;;;21.50;68.40;;;;;;5057608;28;20120;-81
2021/09/17 10:59:21;;;;;;;6.75;5.97;;;21.50;68.30;;;;;;5092186;28;20078;-80
2021/09/17 11:02:03;;;;;;;7.72;6.20;;;21.60;68.20;;;;;;5057902;28;20468;-81
2021/09/17 11:04:35;;;;;;;8.00;6.25;;;21.60;68.10;;;;;;5067201;28;20028;-80
2021/09/17 11:07:23;;;;;;;7.70;5.75;;;21.60;68.20;;;;;;5074990;28;20028;-81
2021/09/17 11:09:54;;;;;;;7.68;5.55;;;21.70;68.20;;;;;;5085809;28;20024;-81
2021/09/17 11:12:26;;;;;;;7.68;6.43;;;21.70;68.00;;;;;;5055773;28;20119;-87
2021/09/17 11:15:12;;;;;;;7.30;5.72;;;21.80;68.10;;;;;;5075248;28;20036;-85
2021/09/17 11:17:55;;;;;;;7.28;6.07;;;21.80;68.20;;;;;;5092858;28;20032;-85
2021/09/17 11:20:25;;;;;;;7.07;5.82;;;21.90;68.10;;;;;;5059151;28;20032;-84
2021/09/17 11:23:00;;;;;;;8.13;6.55;;;21.90;68.00;;;;;;5073746;28;20066;-83
2021/09/17 11:25:33;;;;;;;7.85;6.13;;;21.90;68.10;;;;;;5055522;28;20069;-84
2021/09/17 11:28:08;;;;;;;7.63;6.03;;;22.00;68.20;;;;;;5068567;28;20031;-88
2021/09/17 11:30:38;;;;;;;7.95;6.25;;;22.00;68.10;;;;;;5056580;28;20388;-87
2021/09/17 11:33:19;;;;;;;7.47;5.75;;;22.00;68.00;;;;;;5049466;28;20488;-84
2021/09/17 11:35:45;;;;;;;7.90;6.15;;;22.10;68.10;;;;;;5059439;28;20029;-83
2021/09/17 11:38:12;;;;;;;8.13;6.28;;;22.20;68.00;;;;;;5062457;28;20044;-84
2021/09/17 11:40:53;;;;;;;8.07;6.53;;;22.20;68.00;;;;;;5062024;28;20107;-84
2021/09/17 11:43:19;;;;;;;7.43;6.07;;;22.20;68.00;;;;;;5059051;28;20023;-83
2021/09/17 11:45:50;;;;;;;7.70;5.88;;;22.30;67.90;;;;;;5062577;28;20032;-85
2021/09/17 11:48:19;;;;;;;7.47;6.25;;;22.30;67.90;;;;;;5070001;28;20062;-84
2021/09/17 11:50:45;;;;;;;7.13;6.07;;;22.30;67.90;;;;;;5078850;28;20020;-84
2021/09/17 11:53:11;;;;;;;7.00;5.63;;;22.40;67.80;;;;;;5043701;28;20064;-84
2021/09/17 11:55:37;;;;;;;7.60;5.90;;;22.40;67.80;;;;;;5078673;28;20027;-85
2021/09/17 11:58:03;;;;;;;7.07;5.68;;;22.40;67.60;;;;;;5058167;28;20021;-79
2021/09/17 12:00:29;;;;;;;7.05;5.68;;;22.50;67.60;;;;;;5069515;28;20035;-79
2021/09/17 12:03:02;;;;;;;8.02;5.95;;;22.50;67.60;;;;;;5077249;28;20460;-78
2021/09/17 12:05:30;;;;;;;7.30;5.97;;;22.60;68.20;;;;;;5095278;28;20052;-79
2021/09/17 12:07:56;;;;;;;7.15;6.20;;;22.60;67.50;;;;;;5077140;28;20027;-78
2021/09/17 12:10:27;;;;;;;7.55;5.90;;;22.70;67.60;;;;;;5076654;28;20384;-79
2021/09/17 12:13:06;;;;;;;7.85;6.65;;;22.70;67.60;;;;;;5056740;28;20166;-79
2021/09/17 12:15:36;;;;;;;8.10;6.18;;;22.70;67.60;;;;;;5076988;28;20032;-78
2021/09/17 12:18:05;;;;;;;7.80;5.95;;;22.80;67.60;;;;;;5057009;28;20594;-79
2021/09/17 12:20:45;;;;;;;7.32;5.97;;;22.80;67.50;;;;;;5074576;28;20029;-79
2021/09/17 12:23:15;;;;;;;7.68;6.47;;;22.80;67.50;;;;;;5054620;28;20081;-80
2021/09/17 12:25:41;;;;;;;8.93;6.20;;;22.90;67.50;;;;;;5077015;28;20036;-79
2021/09/17 12:28:11;;;;;;;7.78;6.38;;;22.90;67.40;;;;;;5076664;28;20042;-80
2021/09/17 12:30:38;;;;;;;7.40;5.95;;;22.90;67.40;;;;;;5077035;28;20454;-79
2021/09/17 12:33:14;;;;;;;7.90;6.13;;;23.00;67.40;;;;;;5051970;28;20039;-79
2021/09/17 12:35:46;;;;;;;7.70;6.15;;;23.00;67.30;;;;;;5095206;28;20029;-79
2021/09/17 12:38:14;;;;;;;7.70;6.07;;;23.00;67.30;;;;;;5069170;28;20460;-79